Elbert, Colorado
Current Conditions -  °F | °C
As of 1:34 AM on Thursday 18 Dec 2014 (Local Time) from KMNH Reporting Station
Overcast Overcast  
Wind Chill: -8°   Ceiling: 1400
Heat Index: -4°   Visibility: 10mi
Dew Point: -4°   Wind: 6mph
Humidity: 100%   Direction: 200°SSW
Pressure: 29.95"   Gusts: NA
Location:  39.22°N, 104.54°W
Report Text: KMNH 180834Z AUTO 20005KT 10SM BKN014 BKN019 OVC120 M04/M04 A2995 RMK AO2
Loading
Personal Weather Stations






























Interactive Weather Map New forecast layout! Learn more

10-Day Weather Forecast

Advertisements
Track Severe Weather on mobile